DSNT2: Lake Texoma, Denison Dam

Data processed at Sun Jul 15 2018 23:08


All information presented herein is the property of the government of the United States of America and may be revised or deleted at any time without prior notice.
Dissemination of this information without the expressed written consent of the Public Affairs Office, Tulsa District U.S. Army Corps of Engineers is strictly prohibited.
These data are gathered electronically and, as presented, have not undergone any form of quality control. These data are not guaranteed to be valid or correct.
Go to home page.
Go to station list.

Upstream stations:

Downstream station:
Previous Day
Next Day
Current Day
    
SHEF ID:       DSNT2     Lake Texoma
STATION TYPE:  Reservoir
Normal Pool:  Bottom =   590.00, Top =   619.00

               PRECIP PRECIP(A) ELEVATION   STORAGE   TW-ELEV    INFLOW   RELEASE  AIR-TEMP  WIND-DIRWIND-SPEED REL-HUMID SOLAR-RAD   VOLTAGE  BAT-LOAD
                   in        in        ft     ac-ft        ft       cfs       cfs         F       deg       mph         %      W/m2      volt      volt
              Ccp-Rev   Ccp-Rev   Ccp-Rev   Ccp-Rev   Ccp-Rev  Regi-Rev  Regi-Rev   Ccp-Rev   Ccp-Rev   Ccp-Rev   Ccp-Rev   Ccp-Rev   Ccp-Rev   Ccp-Rev
(US/Central)
07/13 00:00      0.00      0.00    618.06   2569254    501.67       159        19     75.49    135.60      0.34     83.76      0.00     13.00     12.65
07/13 01:00      ----      0.00    618.05   2568457    501.68      -901      -901     73.08    118.50      2.92     89.62      0.00     12.99     12.65
07/13 02:00      ----      ----    618.06   2569254    501.67      -901      -901     71.98    104.00      2.02     95.60      0.00     12.98     12.60
07/13 03:00      0.00      0.00    618.05   2568457    501.67      -901      -901     70.11     84.20      3.25     98.11      0.00     12.97     12.60
07/13 04:00      ----      ----    618.05   2568457    501.67      -901      -901     71.20    115.50      2.83     97.99      0.00      ----      ----
07/13 05:00      0.00      0.00    618.03   2566864    501.67      -901      -901     70.88    102.60      2.20     98.90      0.00     12.95     12.60
07/13 06:00      0.00      0.00    618.06   2569254    501.67      -901      -901     71.42    113.50      2.25     98.84      0.00     12.94     12.60
07/13 07:00      0.00      0.00    618.05   2568457    501.67      -901      -901     71.42    111.50      3.58     99.57     13.00     12.94     12.54
07/13 08:00      0.00      0.00    618.04   2567661    501.68      -901      -901     73.29    105.20      4.72     96.76    102.00     13.31     12.60
07/13 09:00      0.00      0.00    618.05   2568457    501.67      -901      -901     77.04    145.00      6.46     83.03    274.00     13.95     12.95
07/13 10:00      0.00      0.00    618.05   2568457    501.67      -901      -901     80.33    165.40      4.51     76.92    672.00     13.77     13.53
07/13 11:00      0.00      0.00    618.04   2567661    501.67      -901      -901     82.40    162.90      4.03     73.01    684.00     14.08     13.42
07/13 12:00      0.00      0.00    618.04   2567661    501.70      -901      -901     85.82    151.90      2.58     65.51    431.00     13.98     13.36
07/13 13:00      0.00      0.00    618.05   2568457    501.68      -901      -901     88.68    154.30      6.47     58.00   1012.00     13.80     13.94
07/13 14:00      0.03      0.00    618.04   2567661    503.03      -901      -901     85.05    212.30      5.33     69.05    425.00     14.47     13.83
07/13 15:00      0.03      0.00    618.05   2568457    505.88      -901      -901     79.45     16.10      8.67     84.43    158.00     14.36     13.12
07/13 16:00      0.24      0.00    618.03   2566864    506.38      -901      -901     84.81     81.80      4.81     62.81    108.00     14.49     13.18
07/13 17:00      0.01      0.28    618.01   2565271    505.53      -901      -901     83.19    357.90      1.04     80.04    717.00     14.40     13.18
07/13 18:00      0.00      0.06    618.03   2566864    501.67      -901      -901     85.28      8.40      1.13     81.68    312.00     13.86     13.53
07/13 19:00      0.00      0.00    618.05   2568457    501.67      -901      -901     85.39    286.10      2.23     80.53    118.00     13.32     14.00
07/13 20:00      0.00      0.00    618.03   2566864    501.67      -901      -901     89.65    152.10      5.21     52.19     98.00     13.19     12.89
07/13 21:00      0.00      0.00    618.03   2566864    501.67      -901      -901     86.92    132.10      5.05     57.75      2.00     13.03     12.83
07/13 22:00      0.00      0.00    618.04   2567661    501.67      -901      -901     84.70    129.10      4.87     63.12      0.00     13.02     12.65
07/13 23:00      0.00      0.00    618.05   2568457    501.67      -901      -901     81.86     95.30      3.05     70.82      0.00     13.01     12.65